Waltonville, Pennsylvania
Current Conditions -  °F | °C
As of 8:56 AM on Monday 20 Oct 2014 (Local Time) from KMDT Reporting Station
Overcast Overcast  
Wind Chill: 41°   Ceiling: 15000
Heat Index: 44°   Visibility: 10mi
Dew Point: 36°   Wind: 6mph
Humidity: 73%   Direction: 100°E
Pressure: 30.11"   Gusts: NA
Location:  40.2988°N, 76.709°W
Report Text: KMDT 201256Z 10005KT 10SM SCT100 OVC150 07/02 A3011 RMK AO2 SLP197 T00670022
Loading
Personal Weather Stations






























Interactive Weather Map
Tropical Storm Tracking
New forecast layout! Learn more

10-Day Weather Forecast

Advertisements
Track Severe Weather on mobile